KSANMSLP

Guest
Details From KSAN - San Diego Intl
To MSLP - El Salvador Intl
Flight Number -
Tags Generated
Created
Modified
Stats Distance 1,928 nm / 3,572 km
Max Altitude 0 ft / 0 m
Waypoints 6
Social Downloads 1
Likes 0
Share VATSIM

Download

Looking for another format? Having issues loading an existing format? Contact us
Advertisement - Login to hide

Notes

Generated

Route

KSAN EMUDA DUPLO CMT CAT31 MSLP

ID Type Via Altitude Latitude Longitude Leg Dist Tot Dist Heading (true) Name
O KSAN APT - 0 ft / 0 m 32.73712˚ -117.20435˚ - 0 nm - -
EMUDA FIX - 0 ft / 0 m 23.60314˚ -102.01888˚ 971 nm 971 nm 121° / 128° -
DUPLO FIX - 0 ft / 0 m 18.55466˚ -95.27507˚ 484 nm 1455 nm 127° / 130° -
CMT VOR - 0 ft / 0 m 16.17806˚ -92.05750˚ 233 nm 1689 nm 127° / 128° COMITAN VOR-DME
CAT31 FIX - 0 ft / 0 m 13.62806˚ -89.21966˚ 224 nm 1913 nm 133° / 133° -
O MSLP APT - 0 ft / 0 m 13.45400˚ -89.04775˚ 14 nm 1928 nm 136° / 136° El Salvador Intl

Altitude Profile

Advertisement - Login to hide

Weather


0- 5 10 15 20 25 30 35+ Temperature / ° C

Clouds and Precipitation
Forecast for 2018-05-22 00:00 UTC. Updated 6 hours ago

Ground ~20,000 ft ~40,000 ft Winds

KSAN

Details ICAO KSAN (SAN)
Name San Diego Intl
Region United States
Timezone America/Los_Angeles (UTC-7.0)
Stats Elevation 17 ft / 5 m (AMSL)
Location 32.733556° -117.189658°
Runways 1
Magnetic Variation 11.488° E

METAR

KSAN 220351Z 23006KT 10SM SCT012 SCT018 BKN029 16/11 A2992 RMK AO2 SLP130 T01610111

Decode

TAF

TAF AMD KSAN 220406Z 2204/2306 VRB05KT P6SM SCT015 OVC025 FM222000 28010KT P6SM SCT025 BKN035 FM230200 30005KT P6SM BKN018

Decode

Departure Runways

ID Width Length Bearing (true) Bearing (mag) Surface Threshold Offset Overrun Length
09 200 ft / 61 m 9,387 ft / 2,861 m 106.07° 94.58° Asphalt 699 ft / 213 m 269 ft / 82 m
27 200 ft / 61 m 9,387 ft / 2,861 m 286.08° 274.59° Asphalt 1,811 ft / 552 m 0 ft / 0 m

MSLP

Details ICAO MSLP (SAL)
Name El Salvador Intl
Region El Salvador
Timezone America/El_Salvador (UTC-6.0)
Stats Elevation 101 ft / 31 m (AMSL)
Location 13.445666° -89.051739°
Runways 2
Magnetic Variation 0.391° E

METAR

MSLP 220350Z 02003KT 9999 SCT019 27/26 Q1010 A2983 CB LTGIC TO N NOSIG

Decode

TAF

Not found

Destination Runways

ID Width Length Bearing (true) Bearing (mag) Surface Threshold Offset Overrun Length
07 148 ft / 45 m 10,507 ft / 3,202 m 69.86° 69.47° Asphalt 0 ft / 0 m 200 ft / 61 m
18 75 ft / 23 m 2,639 ft / 804 m 180.00° 179.61° Asphalt 0 ft / 0 m 120 ft / 37 m
25 148 ft / 45 m 10,507 ft / 3,202 m 249.87° 249.48° Asphalt 0 ft / 0 m 200 ft / 61 m
36 75 ft / 23 m 2,639 ft / 804 m 0.00° 359.61° Asphalt 0 ft / 0 m 120 ft / 37 m

Approach Navaids

Runway Type Ident Frequency Range Bearing (true) Bearing (mag) Slope Elevation
07 Localiser CUS 110.30 MHz 18 nm / 33 km 69.76° 69.37° - 71 ft / 22 m (AMSL)
07 Glidescope CUS 110.30 MHz 10 nm / 19 km 69.87° 69.47° 2.50° 78 ft / 24 m (AMSL)